<?xml version="1.0" encoding="utf-8"?>
<gpx xmlns:xsi="http://www.w3.org/2001/XMLSchema-instance" xmlns:xsd="http://www.w3.org/2001/XMLSchema" version="1.1" creator="Shapelink.com" xmlns="http://www.topografix.com/GPX/1/1" xmlns:gpxtpx="http://www.garmin.com/xmlschemas/TrackPointExtension/v1">
  <metadata>
    <name>Övrigt 1.05 km, 2020-06-12</name>
    <desc></desc>
    <author><name>Marian Moron</name></author> 
    <time>2020-06-12T18:31:11Z</time>
  </metadata>
  <trk>
    <name>Övrigt 1.05 km, 2020-06-12</name>
    <trkseg>
      <trkpt lat="51.229764014737" lon="4.456999133529">
        <ele>8.2</ele>
        <time>2020-06-12T18:31:11Z</time>
      </trkpt>
      <trkpt lat="51.229840122389" lon="4.456892012847">
        <ele>16.4</ele>
        <time>2020-06-12T18:31:18Z</time>
      </trkpt>
      <trkpt lat="51.230118401469" lon="4.456620690744">
        <ele>28.8</ele>
        <time>2020-06-12T18:31:49Z</time>
      </trkpt>
      <trkpt lat="51.230453845107" lon="4.456494710787">
        <ele>30</ele>
        <time>2020-06-12T18:32:16Z</time>
      </trkpt>
      <trkpt lat="51.230640426201" lon="4.456401755516">
        <ele>28.6</ele>
        <time>2020-06-12T18:32:36Z</time>
      </trkpt>
      <trkpt lat="51.230811165504" lon="4.45630502839">
        <ele>28</ele>
        <time>2020-06-12T18:32:53Z</time>
      </trkpt>
      <trkpt lat="51.231028927266" lon="4.456198075346">
        <ele>23</ele>
        <time>2020-06-12T18:33:15Z</time>
      </trkpt>
      <trkpt lat="51.231081649417" lon="4.456166224126">
        <ele>21</ele>
        <time>2020-06-12T18:33:20Z</time>
      </trkpt>
      <trkpt lat="51.231144848943" lon="4.456176366225">
        <ele>17.4</ele>
        <time>2020-06-12T18:33:26Z</time>
      </trkpt>
      <trkpt lat="51.23114677678" lon="4.456170834171">
        <ele>16</ele>
        <time>2020-06-12T18:33:28Z</time>
      </trkpt>
      <trkpt lat="51.231110231696" lon="4.455964974707">
        <ele>2.6</ele>
        <time>2020-06-12T18:34:07Z</time>
      </trkpt>
      <trkpt lat="51.231232104522" lon="4.455874785463">
        <ele>0</ele>
        <time>2020-06-12T18:34:17Z</time>
      </trkpt>
      <trkpt lat="51.231204947166" lon="4.455588208302">
        <ele>0</ele>
        <time>2020-06-12T18:34:33Z</time>
      </trkpt>
      <trkpt lat="51.231107214212" lon="4.454857055165">
        <ele>0</ele>
        <time>2020-06-12T18:35:19Z</time>
      </trkpt>
      <trkpt lat="51.230954747451" lon="4.454183485681">
        <ele>0</ele>
        <time>2020-06-12T18:36:01Z</time>
      </trkpt>
      <trkpt lat="51.230792054772" lon="4.453502288668">
        <ele>0</ele>
        <time>2020-06-12T18:36:38Z</time>
      </trkpt>
      <trkpt lat="51.230707229944" lon="4.452779433612">
        <ele>0</ele>
        <time>2020-06-12T18:37:19Z</time>
      </trkpt>
      <trkpt lat="51.230661045675" lon="4.452026990449">
        <ele>0</ele>
        <time>2020-06-12T18:38:02Z</time>
      </trkpt>
      <trkpt lat="51.230557026296" lon="4.451361635227">
        <ele>7.6</ele>
        <time>2020-06-12T18:38:40Z</time>
      </trkpt>
      <trkpt lat="51.230564318549" lon="4.450873892466">
        <ele>9.6</ele>
        <time>2020-06-12T18:41:08Z</time>
      </trkpt>
      <trkpt lat="51.230510087656" lon="4.450862493082">
        <ele>8.6</ele>
        <time>2020-06-12T18:41:14Z</time>
      </trkpt>
      <trkpt lat="51.230067607155" lon="4.451000040061">
        <ele>2.4</ele>
        <time>2020-06-12T18:42:08Z</time>
      </trkpt>
      <trkpt lat="51.230032654632" lon="4.451016384766">
        <ele>1.8</ele>
        <time>2020-06-12T18:42:10Z</time>
      </trkpt>
      <trkpt lat="51.229859568397" lon="4.451051924022">
        <ele>0</ele>
        <time>2020-06-12T18:42:28Z</time>
      </trkpt>
      <trkpt lat="51.229831237575" lon="4.451055528239">
        <ele>0</ele>
        <time>2020-06-12T18:42:30Z</time>
      </trkpt>
      <trkpt lat="51.22977214518" lon="4.451067598175">
        <ele>0</ele>
        <time>2020-06-12T18:42:35Z</time>
      </trkpt>
      <trkpt lat="51.229604674818" lon="4.450441302607">
        <ele>4.6</ele>
        <time>2020-06-12T18:43:20Z</time>
      </trkpt>
      <trkpt lat="51.229477186119" lon="4.449729511659">
        <ele>16.4</ele>
        <time>2020-06-12T18:44:01Z</time>
      </trkpt>
      <trkpt lat="51.229414908602" lon="4.449108496688">
        <ele>18.4</ele>
        <time>2020-06-12T18:44:33Z</time>
      </trkpt>
      <trkpt lat="51.22911165146" lon="4.448556380935">
        <ele>17.6</ele>
        <time>2020-06-12T18:45:11Z</time>
      </trkpt>
      <trkpt lat="51.228880562477" lon="4.448773975059">
        <ele>6.8</ele>
        <time>2020-06-12T18:45:56Z</time>
      </trkpt>
      <trkpt lat="51.228876455346" lon="4.448828122133">
        <ele>6.4</ele>
        <time>2020-06-12T18:45:59Z</time>
      </trkpt>
      <trkpt lat="51.22854335864" lon="4.449312344496">
        <ele>5.4</ele>
        <time>2020-06-12T18:46:48Z</time>
      </trkpt>
      <trkpt lat="51.228537156034" lon="4.449330281762">
        <ele>9</ele>
        <time>2020-06-12T18:47:01Z</time>
      </trkpt>
      <trkpt lat="51.228533216541" lon="4.449341848784">
        <ele>8.8</ele>
        <time>2020-06-12T18:49:02Z</time>
      </trkpt>
      <trkpt lat="51.228644444354" lon="4.449219892139">
        <ele>5.8</ele>
        <time>2020-06-12T18:49:19Z</time>
      </trkpt>
      <trkpt lat="51.228710661364" lon="4.449146299057">
        <ele>4.8</ele>
        <time>2020-06-12T18:49:27Z</time>
      </trkpt>
      <trkpt lat="51.228801437341" lon="4.44884513739">
        <ele>0</ele>
        <time>2020-06-12T18:49:54Z</time>
      </trkpt>
      <trkpt lat="51.228882490314" lon="4.448798366388">
        <ele>0</ele>
        <time>2020-06-12T18:50:02Z</time>
      </trkpt>
    </trkseg>
  </trk>
</gpx>